Adelphi, OH (43101)

1:08 AM EST on November 28, 2014 (GMT -0500)
Rock House State Park area | Change Station
CLOSE
Current Station
Personal Weather Station
Location: Laurelville, OH
Elevation: 1086 ft
Nearby Weather Stations

Elev 1086 ft 39.48 °N, 82.66 °W | Updated 2 seconds ago

Overcast
Overcast
26.2 °F
Feels Like 26 °F
N
2.3
Wind Variable Wind from WNW
Gusts 7.0 mph

Today
High -- | Low -- °F
--% Chance of Precip.
Yesterday
High -- | Low -- °F
Precip. -- in
7:29 AM 5:08 PM
Waxing Crescent, 37% visible
Pressure 30.36 in
Visibility 8.0 miles
Clouds Overcast 5000 ft
Windchill 26 °F
Dew Point 23 °F
Humidity 85%
Rainfall 0.00 in
Snow Depth Not available.
UV 0 out of 12
Pollen .10 out of 12
Air Quality Not available.
Flu Activity Not available.
METAR KLHQ 280553Z AUTO 27007KT 8SM OVC050 M02/M06 A3033 RMK AO2 SLP279 60000 T10221056 11006 21022 50000

More Conditions Fewer Conditions

Pressure 30.36 in
Visibility 8.0 miles
Clouds Overcast 5000 ft
Windchill 26 °F
Dew Point 23 °F
Humidity 85%
Rainfall 0.00 in
Snow Depth Not available.
UV 0 out of 12
Pollen .10 out of 12
Air Quality Not available.
Flu Activity Not available.
METAR KLHQ 280553Z AUTO 27007KT 8SM OVC050 M02/M06 A3033 RMK AO2 SLP279 60000 T10221056 11006 21022 50000

More Conditions Fewer Conditions

10-Day Weather Forecast

Almanac

Astronomy

Nov. 28, 2014 Rise Set
Actual Time
Civil Twilight
Nautical Twilight
Astronomical Twilight
Moon
Length of Visible Light
Length of Day
Tomorrow will be .
, % of the Moon is Illuminated

Today's Extremes

State Highs State Lows

Community

WunderPhotos

Upload Photos

1,774,197 photos uploaded!

WunderBlogs® & News

Nearby

Air Quality

  Air Quality AQ Index Pollutant
Not available.

Snow Depth

Station Depth Elevation

Earthquake Activity

City Distance Mag. Time & Date
Minimum magnitude displayed is 2.5.

Coastal Water Temperatures

Place Temperature

Nearby Weather Stations